UDYZ

Details ICAO UDYZ (EVN)
Name ZVARTNOTS
Region Armenia
Timezone Asia/Yerevan (UTC+4.0)
Plans Departing 175
Arriving 175
Stats Elevation 2,838 ft / 865 m (AMSL)
Location 40.147271° 44.395880°
Runways 1
Magnetic Variation 6.201° E
Sunrise 2017-12-16 04:19:35 UTC / 2017-12-16 08:19:35 Local
Sunset 2017-12-16 13:39:10 UTC / 2017-12-16 17:39:10 Local
Advertisement - Login to hide

Runways

ID Width Length Bearing (true) Bearing (mag) Surface Threshold Offset Overrun Length
09 184 ft / 56 m 12,601 ft / 3,841 m 89.59° 83.39° Asphalt 0 ft / 0 m 0 ft / 0 m
27 184 ft / 56 m 12,601 ft / 3,841 m 269.62° 263.42° Asphalt 0 ft / 0 m 0 ft / 0 m

Approach Navaids

Runway Type Ident Frequency Range Bearing (true) Bearing (mag) Slope Elevation
09 Localiser IZR 108.10 MHz 18 nm / 33 km 89.83° 83.63° - 2,838 ft / 865 m (AMSL)
09 Glidescope IZR 108.10 MHz 10 nm / 19 km 89.61° 83.41° 2.67° 2,838 ft / 865 m (AMSL)

Map

Weather


0- 5 10 15 20 25 30 35+ Temperature / ° C

Clouds and Precipitation
Forecast for 2017-12-16 06:00 UTC. Updated 39 minutes ago

Ground ~20,000 ft ~40,000 ft Winds

METAR

UDYZ 160530Z 00000KT 1400 1200E R09/1400D BR NSC M06/M08 Q1026 R09/000070 NOSIG

TAF

Not found

Frequencies

Recorded 119.50 MHz ATIS
Tower 128.00 MHz YEREVAN TWR
Approach 126.00 MHz YEREVAN APP
Ground 119.00 MHz YEREVAN GND
Tower 124.00 MHz YEREVAN TWR
Approach 124.00 MHz YEREVAN APP
Warning: Do not use this data for real-world aviation or navigation. No guarantee of current accuracy is given.